Hohhot, China
Current Conditions -  °F | °C
As of 1:00 PM on Thursday 27 Nov 2014 (Local Time) from ZBHH Reporting Station
Scattered Clouds Scattered Clouds  
Wind Chill: 32°   Ceiling: Unl
Heat Index: 32°   Visibility: 6mi
Dew Point: 14°   Wind: 2mph
Humidity: 47%   Direction: 300°WNW
Pressure: 30.09"   Gusts: NA
Location:  40.82°N, 111.64°E
Report Text: ZBHH 270500Z 30001MPS 9999 SCT040 00/M10 Q1019 NOSIG
Loading
Personal Weather Stations






























Interactive Weather Map New forecast layout! Learn more

10-Day Weather Forecast

Advertisements
Track Severe Weather on mobile